Time;durP1;ratioP1;P1;durP2;ratioP2;P2;SDS_P1;SDS_P2;PMS_P1;PMS_P2;Temp;Humidity;BMP_temperature;BMP_pressure;BME280_temperature;BME280_humidity;BME280_pressure;Samples;Min_cycle;Max_cycle;Signal;HPM_P1;HPM_P2
2023/10/15 00:00:12;;;;;;;10.32;2.47;;;;;;;;;;7371831;19;20021;-73
2023/10/15 00:02:37;;;;;;;9.70;2.45;;;;;;;;;;7370835;19;20595;-72
2023/10/15 00:05:05;;;;;;;9.68;2.30;;;;;;;;;;7363245;19;20006;-71
2023/10/15 00:07:31;;;;;;;6.78;1.80;;;;;;;;;;7385829;19;20035;-72
2023/10/15 00:09:56;;;;;;;8.02;2.50;;;;;;;;;;7365190;19;20374;-72
2023/10/15 00:12:21;;;;;;;8.77;2.13;;;;;;;;;;7364902;19;20558;-72
2023/10/15 00:14:47;;;;;;;8.18;2.40;;;;;;;;;;7363599;19;20051;-72
2023/10/15 00:17:12;;;;;;;11.35;2.47;;;;;;;;;;7364130;19;20000;-72
2023/10/15 00:19:39;;;;;;;13.55;2.63;;;;;;;;;;7386771;19;20002;-73
2023/10/15 00:22:07;;;;;;;7.93;2.25;;;;;;;;;;7363943;19;20021;-72
2023/10/15 00:24:32;;;;;;;7.25;3.17;;;;;;;;;;7364179;19;20010;-73
2023/10/15 00:26:58;;;;;;;7.28;2.50;;;;;;;;;;7365613;19;20014;-71
2023/10/15 00:29:24;;;;;;;7.80;2.55;;;;;;;;;;7365398;19;20015;-72
2023/10/15 00:31:50;;;;;;;9.63;2.40;;;;;;;;;;7386170;19;20500;-73
2023/10/15 00:34:17;;;;;;;13.82;2.83;;;;;;;;;;7363797;19;20011;-73
2023/10/15 00:36:43;;;;;;;8.20;2.55;;;;;;;;;;7362978;19;20471;-72
2023/10/15 00:39:20;;;;;;;6.30;2.30;;;;;;;;;;7364179;19;20125;-72
2023/10/15 00:41:47;;;;;;;7.60;2.28;;;;;;;;;;7364502;19;20007;-74
2023/10/15 00:44:14;;;;;;;8.60;2.53;;;;;;;;;;7363949;19;20392;-73
2023/10/15 00:46:40;;;;;;;8.25;2.60;;;;;;;;;;7386560;19;20493;-73
2023/10/15 00:49:10;;;;;;;9.07;2.47;;;;;;;;;;7363888;19;20011;-73
2023/10/15 00:51:40;;;;;;;12.57;2.85;;;;;;;;;;7364871;19;20006;-74
2023/10/15 00:54:14;;;;;;;7.55;2.40;;;;;;;;;;7362036;19;20805;-74
2023/10/15 00:56:41;;;;;;;11.85;2.92;;;;;;;;;;7364431;19;20007;-73
2023/10/15 01:01:37;;;;;;;6.68;2.30;;;;;;;;;;7385402;19;20381;-72
2023/10/15 01:04:06;;;;;;;9.55;2.30;;;;;;;;;;7363172;19;20013;-73
2023/10/15 01:09:09;;;;;;;7.03;2.20;;;;;;;;;;7364419;19;20057;-73
2023/10/15 01:11:44;;;;;;;11.18;2.22;;;;;;;;;;7364759;19;20006;-72
2023/10/15 01:14:13;;;;;;;12.18;3.05;;;;;;;;;;7362956;19;20666;-72
2023/10/15 01:16:39;;;;;;;9.77;2.67;;;;;;;;;;7386111;19;20014;-73
2023/10/15 01:21:57;;;;;;;;;;;;;;;;;;;;;
2023/10/15 01:24:22;;;;;;;9.30;2.30;;;;;;;;;;7362972;19;20098;-73
2023/10/15 01:26:59;;;;;;;8.43;2.30;;;;;;;;;;7368252;19;20006;-73
2023/10/15 01:29:28;;;;;;;9.00;2.70;;;;;;;;;;7369530;19;20466;-72
2023/10/15 01:31:58;;;;;;;12.07;2.55;;;;;;;;;;7375598;19;20371;-73
2023/10/15 01:34:24;;;;;;;6.55;2.20;;;;;;;;;;7392871;19;20425;-73
2023/10/15 01:36:51;;;;;;;8.60;2.58;;;;;;;;;;7371033;19;20091;-72
2023/10/15 01:39:32;;;;;;;7.40;2.65;;;;;;;;;;7369402;19;20011;-72
2023/10/15 01:42:03;;;;;;;7.75;2.47;;;;;;;;;;7370338;19;20047;-72
2023/10/15 01:44:30;;;;;;;7.35;2.38;;;;;;;;;;7368032;19;20034;-73
2023/10/15 01:49:31;;;;;;;7.50;2.50;;;;;;;;;;7387095;19;20576;-72
2023/10/15 01:52:09;;;;;;;8.80;2.30;;;;;;;;;;7364814;19;20118;-72
2023/10/15 01:54:36;;;;;;;10.13;2.88;;;;;;;;;;7365839;19;19999;-72
2023/10/15 01:57:15;;;;;;;7.95;2.78;;;;;;;;;;7365723;19;20022;-72
2023/10/15 01:59:47;;;;;;;7.78;2.80;;;;;;;;;;7366079;19;20011;-72
2023/10/15 02:02:17;;;;;;;7.60;2.78;;;;;;;;;;7369616;19;20012;-72
2023/10/15 02:04:46;;;;;;;9.57;2.47;;;;;;;;;;7390766;19;20030;-72
2023/10/15 02:07:19;;;;;;;9.27;2.50;;;;;;;;;;7369096;19;20006;-72
2023/10/15 02:09:45;;;;;;;10.45;2.42;;;;;;;;;;7368622;19;20369;-72
2023/10/15 02:12:18;;;;;;;9.25;2.55;;;;;;;;;;7368547;19;20006;-72
2023/10/15 02:14:44;;;;;;;11.43;2.92;;;;;;;;;;7369021;19;20095;-72
2023/10/15 02:17:18;;;;;;;12.50;2.75;;;;;;;;;;7368902;19;20296;-72
2023/10/15 02:19:44;;;;;;;12.75;3.22;;;;;;;;;;7390833;19;20009;-72
2023/10/15 02:22:12;;;;;;;11.30;2.67;;;;;;;;;;7367741;19;20395;-72
2023/10/15 02:24:38;;;;;;;7.65;2.47;;;;;;;;;;7368053;19;20006;-72
2023/10/15 02:27:05;;;;;;;8.05;2.50;;;;;;;;;;7369553;19;20352;-72
2023/10/15 02:31:58;;;;;;;9.68;2.55;;;;;;;;;;7368480;19;20074;-71
2023/10/15 02:34:27;;;;;;;5.53;2.13;;;;;;;;;;7389521;19;20002;-72
2023/10/15 02:36:54;;;;;;;9.13;2.70;;;;;;;;;;7367133;19;20010;-71
2023/10/15 02:39:22;;;;;;;8.95;2.45;;;;;;;;;;7368710;19;20002;-72
2023/10/15 02:41:47;;;;;;;9.18;2.45;;;;;;;;;;7368536;19;20009;-71
2023/10/15 02:44:13;;;;;;;10.90;2.63;;;;;;;;;;7368440;19;19995;-72
2023/10/15 02:46:47;;;;;;;7.20;2.50;;;;;;;;;;7388569;19;20010;-72
2023/10/15 02:49:17;;;;;;;10.10;2.35;;;;;;;;;;7367631;19;20750;-71
2023/10/15 02:51:45;;;;;;;9.00;2.40;;;;;;;;;;7367717;19;20007;-72
2023/10/15 02:54:36;;;;;;;9.75;2.70;;;;;;;;;;7367437;19;20030;-72
2023/10/15 02:57:03;;;;;;;12.10;2.70;;;;;;;;;;7368221;19;20010;-72
2023/10/15 02:59:31;;;;;;;7.93;2.58;;;;;;;;;;7368866;19;20044;-72
2023/10/15 03:01:57;;;;;;;9.23;2.60;;;;;;;;;;7370670;19;20620;-71
2023/10/15 03:04:37;;;;;;;12.48;2.95;;;;;;;;;;7389179;19;20002;-72
2023/10/15 03:09:56;;;;;;;10.10;3.40;;;;;;;;;;7375025;19;20079;-71
2023/10/15 03:12:22;;;;;;;8.18;2.45;;;;;;;;;;7374159;19;20010;-71
2023/10/15 03:14:47;;;;;;;7.57;2.50;;;;;;;;;;7372467;19;20102;-71
2023/10/15 03:17:24;;;;;;;8.93;2.70;;;;;;;;;;7372267;19;20014;-71
2023/10/15 03:19:52;;;;;;;11.25;2.80;;;;;;;;;;7390008;19;20107;-71
2023/10/15 03:22:17;;;;;;;7.70;2.60;;;;;;;;;;7366802;19;20006;-71
2023/10/15 03:24:44;;;;;;;6.90;2.35;;;;;;;;;;7364964;19;20031;-71
2023/10/15 03:27:09;;;;;;;11.65;2.88;;;;;;;;;;7366941;19;20147;-71
2023/10/15 03:29:35;;;;;;;5.88;2.63;;;;;;;;;;7366649;19;20490;-73
2023/10/15 03:32:09;;;;;;;6.88;2.42;;;;;;;;;;7366200;19;20086;-71
2023/10/15 03:34:47;;;;;;;7.82;2.72;;;;;;;;;;7387492;19;19999;-71
2023/10/15 03:37:16;;;;;;;7.63;2.58;;;;;;;;;;7365906;19;20034;-71
2023/10/15 03:42:10;;;;;;;10.57;2.50;;;;;;;;;;7363889;19;20385;-71
2023/10/15 03:44:54;;;;;;;11.15;2.85;;;;;;;;;;7365324;19;20079;-71
2023/10/15 03:47:22;;;;;;;10.93;3.13;;;;;;;;;;7366349;19;20022;-71
2023/10/15 03:49:51;;;;;;;12.98;3.20;;;;;;;;;;7385933;19;20014;-71
2023/10/15 03:52:20;;;;;;;10.27;2.90;;;;;;;;;;7365177;19;20007;-71
2023/10/15 03:54:47;;;;;;;11.63;3.13;;;;;;;;;;7364283;19;20412;-71
2023/10/15 03:57:17;;;;;;;12.95;3.22;;;;;;;;;;7366449;19;20332;-71
2023/10/15 03:59:44;;;;;;;10.23;3.00;;;;;;;;;;7366188;19;20765;-71
2023/10/15 04:02:24;;;;;;;9.95;3.00;;;;;;;;;;7365714;19;20006;-71
2023/10/15 04:05:01;;;;;;;8.38;3.20;;;;;;;;;;7386924;19;20015;-71
2023/10/15 04:07:30;;;;;;;10.52;3.15;;;;;;;;;;7366433;19;20035;-71
2023/10/15 04:09:56;;;;;;;6.28;3.00;;;;;;;;;;7366158;19;20286;-71
2023/10/15 04:12:21;;;;;;;13.48;3.35;;;;;;;;;;7365322;19;20810;-71
2023/10/15 04:14:47;;;;;;;6.03;2.97;;;;;;;;;;7364745;19;20507;-71
2023/10/15 04:17:13;;;;;;;12.93;3.45;;;;;;;;;;7364626;19;20846;-71
2023/10/15 04:19:38;;;;;;;9.38;2.67;;;;;;;;;;7387584;19;20041;-71
2023/10/15 04:22:13;;;;;;;10.02;2.88;;;;;;;;;;7363943;19;20006;-71
2023/10/15 04:24:40;;;;;;;12.43;3.08;;;;;;;;;;7364113;19;20070;-71
2023/10/15 04:27:15;;;;;;;11.00;3.20;;;;;;;;;;7365372;19;20086;-71
2023/10/15 04:29:49;;;;;;;9.73;3.22;;;;;;;;;;7365767;19;20018;-71
2023/10/15 04:34:53;;;;;;;11.85;3.88;;;;;;;;;;7375641;19;20041;-72
2023/10/15 04:37:20;;;;;;;10.00;3.40;;;;;;;;;;7379801;19;20014;-71
2023/10/15 04:39:52;;;;;;;9.20;3.75;;;;;;;;;;7364587;19;20006;-71
2023/10/15 04:42:29;;;;;;;9.68;3.80;;;;;;;;;;7362331;19;20510;-71
2023/10/15 04:44:55;;;;;;;11.38;3.45;;;;;;;;;;7361831;19;20002;-71
2023/10/15 04:47:38;;;;;;;11.35;3.50;;;;;;;;;;7365320;19;20003;-71
2023/10/15 04:50:14;;;;;;;11.60;3.42;;;;;;;;;;7365668;19;20018;-71
2023/10/15 04:52:43;;;;;;;15.13;3.70;;;;;;;;;;7385282;19;20530;-71
2023/10/15 04:55:13;;;;;;;9.80;3.40;;;;;;;;;;7366652;19;20076;-72
2023/10/15 04:57:39;;;;;;;7.55;3.10;;;;;;;;;;7364273;19;20010;-71
2023/10/15 05:00:06;;;;;;;12.00;3.38;;;;;;;;;;7365397;19;20353;-71
2023/10/15 05:02:33;;;;;;;14.05;4.03;;;;;;;;;;7370330;19;20446;-71
2023/10/15 05:05:00;;;;;;;9.93;3.30;;;;;;;;;;7371527;19;20003;-71
2023/10/15 05:07:26;;;;;;;9.50;3.20;;;;;;;;;;7393326;19;19999;-71
2023/10/15 05:09:54;;;;;;;14.25;3.35;;;;;;;;;;7371619;19;20066;-71
2023/10/15 05:12:20;;;;;;;10.25;3.30;;;;;;;;;;7370906;19;20006;-71
2023/10/15 05:14:49;;;;;;;14.13;3.58;;;;;;;;;;7370779;19;20483;-71
2023/10/15 05:17:17;;;;;;;11.30;3.35;;;;;;;;;;7370994;19;20163;-71
2023/10/15 05:19:43;;;;;;;8.63;3.00;;;;;;;;;;7393198;19;20058;-71
2023/10/15 05:22:09;;;;;;;9.32;3.42;;;;;;;;;;7369809;19;20031;-71
2023/10/15 05:24:35;;;;;;;12.45;3.50;;;;;;;;;;7370514;19;20047;-71
2023/10/15 05:27:00;;;;;;;13.88;3.45;;;;;;;;;;7371257;19;20014;-71
2023/10/15 05:29:26;;;;;;;11.55;3.30;;;;;;;;;;7371342;19;20007;-71
2023/10/15 05:31:53;;;;;;;11.80;3.45;;;;;;;;;;7386524;19;20083;-72
2023/10/15 05:34:19;;;;;;;11.48;3.58;;;;;;;;;;7368006;19;20003;-72
2023/10/15 05:36:45;;;;;;;10.10;3.70;;;;;;;;;;7370097;19;20005;-72
2023/10/15 05:39:10;;;;;;;9.35;3.25;;;;;;;;;;7370511;19;20014;-71
2023/10/15 05:41:37;;;;;;;16.52;3.75;;;;;;;;;;7369507;19;20021;-72
2023/10/15 05:44:02;;;;;;;12.85;3.70;;;;;;;;;;7368577;19;20006;-71
2023/10/15 05:46:28;;;;;;;10.15;3.83;;;;;;;;;;7391404;19;20076;-71
2023/10/15 05:48:59;;;;;;;13.10;3.75;;;;;;;;;;7370072;19;20018;-70
2023/10/15 05:51:24;;;;;;;11.18;3.40;;;;;;;;;;7369609;19;20013;-71
2023/10/15 05:53:49;;;;;;;11.95;3.78;;;;;;;;;;7366882;19;20380;-71
2023/10/15 05:56:16;;;;;;;9.10;3.15;;;;;;;;;;7370215;19;20470;-70
2023/10/15 05:58:41;;;;;;;14.52;3.63;;;;;;;;;;7388546;19;20006;-71
2023/10/15 06:01:09;;;;;;;8.57;3.25;;;;;;;;;;7369041;19;20017;-71
2023/10/15 06:03:35;;;;;;;6.20;2.95;;;;;;;;;;7368436;19;20563;-69
2023/10/15 06:06:02;;;;;;;12.98;3.75;;;;;;;;;;7369904;19;20006;-70
2023/10/15 06:08:28;;;;;;;12.30;3.35;;;;;;;;;;7369758;19;20007;-72
2023/10/15 06:10:53;;;;;;;11.13;3.13;;;;;;;;;;7378186;19;20098;-71
2023/10/15 06:13:18;;;;;;;12.68;3.08;;;;;;;;;;7383947;19;20763;-72
2023/10/15 06:15:44;;;;;;;7.13;3.03;;;;;;;;;;7370551;19;20168;-72
2023/10/15 06:18:09;;;;;;;7.25;2.95;;;;;;;;;;7369870;19;20002;-71
2023/10/15 06:20:34;;;;;;;9.10;3.05;;;;;;;;;;7372012;19;20022;-72
2023/10/15 06:23:03;;;;;;;11.30;3.20;;;;;;;;;;7374903;19;20017;-74
2023/10/15 06:25:29;;;;;;;10.90;2.80;;;;;;;;;;7390006;19;20753;-71
2023/10/15 06:27:54;;;;;;;12.80;2.90;;;;;;;;;;7376566;19;20010;-74
2023/10/15 06:30:26;;;;;;;9.00;3.47;;;;;;;;;;7374180;19;20019;-74
2023/10/15 06:32:52;;;;;;;9.07;2.70;;;;;;;;;;7374823;19;20007;-74
2023/10/15 06:35:18;;;;;;;9.15;2.80;;;;;;;;;;7376952;19;20039;-72
2023/10/15 06:37:50;;;;;;;9.18;2.92;;;;;;;;;;7391133;19;19998;-74
2023/10/15 06:40:16;;;;;;;9.25;2.85;;;;;;;;;;7377467;19;20018;-75
2023/10/15 06:42:43;;;;;;;7.95;2.60;;;;;;;;;;7372363;19;20070;-74
2023/10/15 06:45:09;;;;;;;12.18;3.10;;;;;;;;;;7378705;19;20015;-75
2023/10/15 06:47:38;;;;;;;10.68;3.05;;;;;;;;;;7385317;19;20038;-74
2023/10/15 06:50:06;;;;;;;10.18;2.72;;;;;;;;;;7381636;19;20014;-73
2023/10/15 06:52:38;;;;;;;12.55;2.83;;;;;;;;;;7401634;19;20026;-75
2023/10/15 06:55:07;;;;;;;12.98;3.17;;;;;;;;;;7368352;19;20014;-74
2023/10/15 06:57:40;;;;;;;8.95;2.67;;;;;;;;;;7367727;19;20448;-74
2023/10/15 07:00:07;;;;;;;11.95;2.88;;;;;;;;;;7366867;19;19998;-74
2023/10/15 07:02:32;;;;;;;10.77;2.78;;;;;;;;;;7367165;19;20007;-74
2023/10/15 07:05:00;;;;;;;8.18;2.40;;;;;;;;;;7366179;19;19998;-74
2023/10/15 07:07:26;;;;;;;10.30;2.72;;;;;;;;;;7390451;19;20009;-74
2023/10/15 07:09:52;;;;;;;6.78;2.78;;;;;;;;;;7367070;19;20630;-72
2023/10/15 07:12:17;;;;;;;12.50;2.80;;;;;;;;;;7366294;19;20002;-73
2023/10/15 07:14:43;;;;;;;8.70;2.72;;;;;;;;;;7363735;19;20073;-75
2023/10/15 07:17:09;;;;;;;14.43;3.25;;;;;;;;;;7366661;19;20006;-73
2023/10/15 07:19:35;;;;;;;9.40;2.70;;;;;;;;;;7388795;19;20008;-72
2023/10/15 07:22:00;;;;;;;12.13;3.10;;;;;;;;;;7365196;19;20027;-72
2023/10/15 07:24:25;;;;;;;7.93;2.70;;;;;;;;;;7364115;19;20010;-73
2023/10/15 07:26:52;;;;;;;9.55;2.78;;;;;;;;;;7367661;19;20042;-73
2023/10/15 07:29:18;;;;;;;9.40;2.92;;;;;;;;;;7363832;19;20010;-74
2023/10/15 07:31:44;;;;;;;6.72;2.88;;;;;;;;;;7387850;19;20086;-73
2023/10/15 07:34:10;;;;;;;7.47;2.78;;;;;;;;;;7363302;19;20019;-74
2023/10/15 07:36:36;;;;;;;7.88;2.50;;;;;;;;;;7366086;19;20021;-73
2023/10/15 07:39:02;;;;;;;10.40;3.10;;;;;;;;;;7364600;19;20014;-73
2023/10/15 07:41:30;;;;;;;8.07;2.40;;;;;;;;;;7365127;19;20014;-73
2023/10/15 07:43:56;;;;;;;9.00;2.78;;;;;;;;;;7360174;19;20010;-74
2023/10/15 07:46:21;;;;;;;8.95;2.70;;;;;;;;;;7388326;19;20006;-73
2023/10/15 07:48:46;;;;;;;8.73;2.40;;;;;;;;;;7365521;19;20011;-72
2023/10/15 07:51:12;;;;;;;6.68;2.70;;;;;;;;;;7366114;19;20491;-73
2023/10/15 07:53:37;;;;;;;13.02;4.45;;;;;;;;;;7363095;19;20020;-72
2023/10/15 07:56:06;;;;;;;10.43;2.75;;;;;;;;;;7364178;19;20498;-73
2023/10/15 07:58:31;;;;;;;7.65;2.80;;;;;;;;;;7384517;19;20482;-72
2023/10/15 08:00:59;;;;;;;9.50;2.60;;;;;;;;;;7363939;19;20010;-72
2023/10/15 08:03:26;;;;;;;7.20;2.55;;;;;;;;;;7365138;19;20002;-71
2023/10/15 08:05:51;;;;;;;9.60;2.72;;;;;;;;;;7367624;19;20002;-73
2023/10/15 08:08:17;;;;;;;9.32;2.70;;;;;;;;;;7366536;19;20026;-73
2023/10/15 08:10:42;;;;;;;9.05;2.67;;;;;;;;;;7388866;19;20026;-74
2023/10/15 08:13:08;;;;;;;8.80;2.30;;;;;;;;;;7365363;19;20025;-73
2023/10/15 08:15:34;;;;;;;8.07;2.85;;;;;;;;;;7364201;19;20048;-73
2023/10/15 08:18:01;;;;;;;10.48;2.60;;;;;;;;;;7364813;19;20017;-74
2023/10/15 08:20:27;;;;;;;8.57;2.40;;;;;;;;;;7364999;19;20021;-73
2023/10/15 08:22:53;;;;;;;10.15;4.80;;;;;;;;;;7370654;19;20016;-74
2023/10/15 08:25:21;;;;;;;17.73;9.55;;;;;;;;;;7380570;19;20801;-72
2023/10/15 08:27:47;;;;;;;6.97;2.20;;;;;;;;;;7364050;19;20002;-73
2023/10/15 08:30:14;;;;;;;7.13;2.50;;;;;;;;;;7366558;19;20366;-72
2023/10/15 08:32:44;;;;;;;6.30;2.05;;;;;;;;;;7368491;19;20023;-73
2023/10/15 08:35:10;;;;;;;7.03;2.30;;;;;;;;;;7367031;19;20019;-73
2023/10/15 08:37:40;;;;;;;5.70;1.95;;;;;;;;;;7390474;19;20122;-72
2023/10/15 08:40:06;;;;;;;9.57;2.22;;;;;;;;;;7369344;19;20066;-74
2023/10/15 08:42:46;;;;;;;6.53;2.10;;;;;;;;;;7366540;19;19999;-73
2023/10/15 08:45:13;;;;;;;6.28;2.10;;;;;;;;;;7367628;19;20007;-74
2023/10/15 08:47:39;;;;;;;5.45;1.98;;;;;;;;;;7367555;19;20007;-73
2023/10/15 08:50:06;;;;;;;8.85;2.00;;;;;;;;;;7366996;19;20022;-73
2023/10/15 08:52:32;;;;;;;5.65;1.70;;;;;;;;;;7387592;19;20018;-73
2023/10/15 08:55:00;;;;;;;5.75;2.20;;;;;;;;;;7364986;19;20433;-73
2023/10/15 08:57:26;;;;;;;7.43;2.10;;;;;;;;;;7366740;19;20697;-73
2023/10/15 08:59:53;;;;;;;9.35;3.88;;;;;;;;;;7366669;19;20015;-72
2023/10/15 09:02:19;;;;;;;15.63;10.05;;;;;;;;;;7366667;19;20076;-72
2023/10/15 09:04:45;;;;;;;4.70;1.98;;;;;;;;;;7387653;19;20002;-73
2023/10/15 09:07:17;;;;;;;6.93;1.83;;;;;;;;;;7366148;19;20034;-72
2023/10/15 09:09:42;;;;;;;6.93;2.67;;;;;;;;;;7366683;19;20013;-74
2023/10/15 09:12:12;;;;;;;6.70;2.17;;;;;;;;;;7366026;19;20010;-73
2023/10/15 09:14:45;;;;;;;4.95;1.88;;;;;;;;;;7366562;19;20006;-73
2023/10/15 09:17:15;;;;;;;8.27;2.03;;;;;;;;;;7365047;19;20022;-73
2023/10/15 09:19:41;;;;;;;7.63;2.40;;;;;;;;;;7386701;19;20010;-73
2023/10/15 09:22:08;;;;;;;8.73;2.20;;;;;;;;;;7364735;19;20488;-73
2023/10/15 09:24:36;;;;;;;6.75;2.00;;;;;;;;;;7365191;19;20010;-74
2023/10/15 09:27:01;;;;;;;6.38;1.92;;;;;;;;;;7366334;19;20006;-73
2023/10/15 09:29:30;;;;;;;6.43;1.98;;;;;;;;;;7365762;19;20460;-72
2023/10/15 09:31:56;;;;;;;7.85;1.85;;;;;;;;;;7365001;19;20040;-72
2023/10/15 09:34:25;;;;;;;7.45;2.03;;;;;;;;;;7386610;19;19995;-72
2023/10/15 09:36:51;;;;;;;5.03;1.83;;;;;;;;;;7365264;19;20005;-72
2023/10/15 09:39:17;;;;;;;4.35;1.60;;;;;;;;;;7373674;19;20468;-73
2023/10/15 09:41:42;;;;;;;3.35;1.40;;;;;;;;;;7376296;19;20708;-72
2023/10/15 09:44:16;;;;;;;5.40;1.90;;;;;;;;;;7371681;19;20006;-71
2023/10/15 09:46:44;;;;;;;4.15;1.40;;;;;;;;;;7395100;19;20003;-71
2023/10/15 09:49:12;;;;;;;4.85;1.70;;;;;;;;;;7376210;19;20074;-73
2023/10/15 09:51:38;;;;;;;5.00;1.80;;;;;;;;;;7372591;19;20007;-71
2023/10/15 09:54:04;;;;;;;3.72;1.65;;;;;;;;;;7351971;19;20534;-72
2023/10/15 09:56:30;;;;;;;5.07;1.40;;;;;;;;;;7367828;19;20010;-72
2023/10/15 09:58:56;;;;;;;3.50;1.67;;;;;;;;;;7366440;19;20013;-71
2023/10/15 10:01:27;;;;;;;5.68;1.45;;;;;;;;;;7388792;19;19998;-72
2023/10/15 10:03:59;;;;;;;4.30;1.70;;;;;;;;;;7365727;19;20543;-74
2023/10/15 10:06:43;;;;;;;4.22;1.58;;;;;;;;;;7367912;19;20453;-74
2023/10/15 10:09:30;;;;;;;2.80;1.30;;;;;;;;;;7366619;19;20040;-71
2023/10/15 10:12:07;;;;;;;3.80;1.58;;;;;;;;;;7369226;19;20003;-71
2023/10/15 10:14:53;;;;;;;5.32;1.58;;;;;;;;;;7367179;19;20019;-73
2023/10/15 10:17:21;;;;;;;3.20;1.50;;;;;;;;;;7368970;19;20503;-72
2023/10/15 10:19:52;;;;;;;3.50;1.50;;;;;;;;;;7389609;19;21519;-72
2023/10/15 10:22:27;;;;;;;;;;;;;;;;;;7369217;19;20544;-72
2023/10/15 10:24:58;;;;;;;3.40;1.40;;;;;;;;;;7367203;19;19931;-72
2023/10/15 10:27:26;;;;;;;4.50;1.60;;;;;;;;;;7368701;19;20347;-71
2023/10/15 10:29:53;;;;;;;3.08;1.45;;;;;;;;;;7367565;19;20006;-72
2023/10/15 10:32:20;;;;;;;3.70;1.60;;;;;;;;;;7368440;19;20453;-72
2023/10/15 10:34:46;;;;;;;3.50;1.50;;;;;;;;;;7389503;19;20667;-72
2023/10/15 10:37:21;;;;;;;10.18;6.22;;;;;;;;;;7367344;19;20473;-71
2023/10/15 10:39:48;;;;;;;7.68;3.20;;;;;;;;;;7365960;19;20022;-72
2023/10/15 10:42:26;;;;;;;3.20;1.45;;;;;;;;;;7365202;19;20074;-71
2023/10/15 10:44:56;;;;;;;2.35;1.60;;;;;;;;;;7367480;19;20114;-72
2023/10/15 10:47:24;;;;;;;2.55;1.30;;;;;;;;;;7368598;19;20035;-74
2023/10/15 10:50:00;;;;;;;4.28;1.60;;;;;;;;;;7390965;19;20105;-72
2023/10/15 10:52:34;;;;;;;3.15;1.50;;;;;;;;;;7387768;19;20741;-73
2023/10/15 10:55:30;;;;;;;3.30;1.45;;;;;;;;;;7367082;19;20579;-73
2023/10/15 10:57:55;;;;;;;3.28;1.52;;;;;;;;;;7365751;19;20036;-72
2023/10/15 11:00:21;;;;;;;2.78;1.50;;;;;;;;;;7367098;19;20345;-72
2023/10/15 11:02:48;;;;;;;4.22;1.63;;;;;;;;;;7366252;19;20489;-73
2023/10/15 11:05:14;;;;;;;8.13;3.00;;;;;;;;;;7366953;19;19996;-73
2023/10/15 11:07:40;;;;;;;5.57;1.58;;;;;;;;;;7386659;19;20142;-72
2023/10/15 11:10:07;;;;;;;3.28;1.70;;;;;;;;;;7365791;19;20068;-71
2023/10/15 11:12:32;;;;;;;5.55;1.70;;;;;;;;;;7364244;19;20011;-72
2023/10/15 11:14:58;;;;;;;5.53;1.48;;;;;;;;;;7367396;19;20122;-72
2023/10/15 11:17:23;;;;;;;3.42;1.40;;;;;;;;;;7366456;19;20014;-72
2023/10/15 11:19:50;;;;;;;5.28;1.50;;;;;;;;;;7389906;19;20010;-71
2023/10/15 11:22:15;;;;;;;5.82;1.70;;;;;;;;;;7366452;19;20007;-71
2023/10/15 11:24:43;;;;;;;7.70;1.88;;;;;;;;;;7367287;19;20007;-72
2023/10/15 11:27:12;;;;;;;5.50;1.55;;;;;;;;;;7366944;19;20514;-72
2023/10/15 11:29:37;;;;;;;4.88;1.63;;;;;;;;;;7367465;19;20022;-72
2023/10/15 11:32:06;;;;;;;3.35;1.30;;;;;;;;;;7369072;19;19999;-72
2023/10/15 11:34:33;;;;;;;3.90;1.50;;;;;;;;;;7389047;19;20036;-71
2023/10/15 11:37:01;;;;;;;5.38;1.38;;;;;;;;;;7367204;19;20030;-71
2023/10/15 11:39:37;;;;;;;2.13;1.25;;;;;;;;;;7367447;19;20421;-70
2023/10/15 11:42:09;;;;;;;3.65;1.52;;;;;;;;;;7367922;19;20058;-71
2023/10/15 11:44:42;;;;;;;2.95;1.40;;;;;;;;;;7368780;19;20006;-71
2023/10/15 11:47:11;;;;;;;3.67;1.38;;;;;;;;;;7369383;19;20017;-71
2023/10/15 11:49:44;;;;;;;4.63;1.42;;;;;;;;;;7391217;19;20009;-71
2023/10/15 11:52:16;;;;;;;5.45;1.80;;;;;;;;;;7368734;19;20503;-72
2023/10/15 11:54:43;;;;;;;4.75;2.60;;;;;;;;;;7368701;19;20034;-71
2023/10/15 11:57:16;;;;;;;6.65;1.63;;;;;;;;;;7369763;19;20077;-72
2023/10/15 11:59:45;;;;;;;5.18;1.60;;;;;;;;;;7371453;19;20003;-71
2023/10/15 12:02:14;;;;;;;5.72;1.70;;;;;;;;;;7370350;19;20475;-71
2023/10/15 12:04:40;;;;;;;4.90;1.70;;;;;;;;;;7391130;19;20002;-72
2023/10/15 12:07:06;;;;;;;5.53;1.70;;;;;;;;;;7368934;19;20042;-71
2023/10/15 12:09:32;;;;;;;5.03;1.83;;;;;;;;;;7376816;19;20010;-71
2023/10/15 12:11:59;;;;;;;5.10;1.48;;;;;;;;;;7373689;19;20103;-70
2023/10/15 12:14:24;;;;;;;4.05;1.65;;;;;;;;;;7359529;19;20002;-72
2023/10/15 12:16:50;;;;;;;3.25;1.70;;;;;;;;;;7390727;19;20021;-72
2023/10/15 12:19:17;;;;;;;8.05;1.83;;;;;;;;;;7365196;19;20452;-73
2023/10/15 12:21:43;;;;;;;5.60;1.80;;;;;;;;;;7364295;19;20036;-72
2023/10/15 12:24:09;;;;;;;5.88;1.83;;;;;;;;;;7363863;19;20050;-72
2023/10/15 12:26:35;;;;;;;3.05;1.40;;;;;;;;;;7365169;19;20010;-72
2023/10/15 12:29:03;;;;;;;5.32;1.73;;;;;;;;;;7363093;19;20026;-71
2023/10/15 12:31:30;;;;;;;4.57;1.70;;;;;;;;;;7385355;19;20013;-71
2023/10/15 12:33:56;;;;;;;5.30;1.67;;;;;;;;;;7365860;19;20025;-72
2023/10/15 12:36:21;;;;;;;4.03;1.60;;;;;;;;;;7367409;19;20480;-72
2023/10/15 12:38:47;;;;;;;4.05;1.80;;;;;;;;;;7365635;19;20531;-73
2023/10/15 12:41:13;;;;;;;3.13;1.52;;;;;;;;;;7366911;19;20007;-73
2023/10/15 12:43:40;;;;;;;4.30;1.55;;;;;;;;;;7386058;19;19999;-73
2023/10/15 12:46:06;;;;;;;3.72;1.50;;;;;;;;;;7366953;19;20492;-73
2023/10/15 12:48:31;;;;;;;4.32;1.60;;;;;;;;;;7368452;19;20079;-73
2023/10/15 12:50:56;;;;;;;9.02;5.18;;;;;;;;;;7368557;19;20378;-72
2023/10/15 12:53:23;;;;;;;5.93;2.33;;;;;;;;;;7369115;19;20019;-73
2023/10/15 12:55:49;;;;;;;4.78;1.58;;;;;;;;;;7390304;19;20006;-73
2023/10/15 12:58:15;;;;;;;4.25;1.38;;;;;;;;;;7373380;19;20477;-73
2023/10/15 13:00:43;;;;;;;6.15;1.58;;;;;;;;;;7381559;19;20002;-74
2023/10/15 13:03:09;;;;;;;3.92;1.50;;;;;;;;;;7399428;19;19995;-73
2023/10/15 13:05:35;;;;;;;4.30;1.50;;;;;;;;;;7399592;19;20013;-73
2023/10/15 13:08:00;;;;;;;4.35;1.75;;;;;;;;;;7395141;19;19994;-72
2023/10/15 13:10:25;;;;;;;4.10;1.50;;;;;;;;;;7402401;19;20001;-73
2023/10/15 13:12:51;;;;;;;4.63;1.50;;;;;;;;;;7394210;19;20007;-72
2023/10/15 13:15:18;;;;;;;3.22;1.40;;;;;;;;;;7404686;19;20030;-73
2023/10/15 13:17:47;;;;;;;2.83;1.33;;;;;;;;;;7388585;19;20041;-73
2023/10/15 13:20:13;;;;;;;4.22;1.50;;;;;;;;;;7379994;19;20489;-73
2023/10/15 13:22:40;;;;;;;3.50;1.50;;;;;;;;;;7402188;19;20005;-72
2023/10/15 13:25:06;;;;;;;4.05;1.50;;;;;;;;;;7383964;19;20063;-72
2023/10/15 13:27:33;;;;;;;4.25;1.60;;;;;;;;;;7382602;19;20002;-72
2023/10/15 13:29:59;;;;;;;6.13;1.63;;;;;;;;;;7398938;19;20013;-72
2023/10/15 13:32:24;;;;;;;5.05;1.48;;;;;;;;;;7401960;19;20020;-72
2023/10/15 13:34:50;;;;;;;5.45;1.60;;;;;;;;;;7411674;19;20040;-73
2023/10/15 13:37:15;;;;;;;11.23;5.05;;;;;;;;;;7386617;19;20007;-72
2023/10/15 13:39:40;;;;;;;4.00;1.98;;;;;;;;;;7401121;19;20007;-72
2023/10/15 13:42:06;;;;;;;2.40;1.55;;;;;;;;;;7392362;19;20010;-72
2023/10/15 13:44:33;;;;;;;4.30;1.50;;;;;;;;;;7403079;19;20033;-72
2023/10/15 13:46:59;;;;;;;4.35;1.38;;;;;;;;;;7398384;19;20025;-73
2023/10/15 13:49:24;;;;;;;6.35;1.60;;;;;;;;;;7401856;19;19994;-73
2023/10/15 13:51:50;;;;;;;3.72;1.40;;;;;;;;;;7379457;19;20002;-72
2023/10/15 13:54:16;;;;;;;3.60;1.23;;;;;;;;;;7380031;19;20003;-73
2023/10/15 13:56:42;;;;;;;4.18;1.60;;;;;;;;;;7381578;19;20444;-73
2023/10/15 13:59:14;;;;;;;3.25;1.45;;;;;;;;;;7373769;19;20154;-73
2023/10/15 14:01:43;;;;;;;4.82;1.70;;;;;;;;;;7392697;19;20011;-72
2023/10/15 14:04:08;;;;;;;3.35;1.30;;;;;;;;;;7385933;19;20006;-73
2023/10/15 14:06:34;;;;;;;3.88;1.40;;;;;;;;;;7407473;19;20005;-73
2023/10/15 14:09:00;;;;;;;2.83;1.40;;;;;;;;;;7381803;19;20010;-73
2023/10/15 14:11:27;;;;;;;3.28;1.52;;;;;;;;;;7368130;19;20857;-72
2023/10/15 14:13:52;;;;;;;4.43;1.30;;;;;;;;;;7380962;19;20463;-72
2023/10/15 14:16:18;;;;;;;3.08;1.50;;;;;;;;;;7380432;19;20011;-74
2023/10/15 14:18:44;;;;;;;2.70;1.40;;;;;;;;;;7370515;19;20027;-73
2023/10/15 14:21:09;;;;;;;4.57;1.52;;;;;;;;;;7372607;19;20516;-74
2023/10/15 14:23:35;;;;;;;3.80;1.40;;;;;;;;;;7367996;19;20029;-72
2023/10/15 14:26:01;;;;;;;4.22;1.55;;;;;;;;;;7398844;19;20001;-73
2023/10/15 14:28:27;;;;;;;4.30;1.48;;;;;;;;;;7403614;19;20009;-73
2023/10/15 14:30:53;;;;;;;5.40;1.60;;;;;;;;;;7369014;19;20070;-73
2023/10/15 14:33:18;;;;;;;2.72;1.52;;;;;;;;;;7375513;19;20044;-72
2023/10/15 14:35:44;;;;;;;2.97;1.50;;;;;;;;;;7394036;19;20010;-73
2023/10/15 14:38:09;;;;;;;4.88;1.50;;;;;;;;;;7382700;19;20023;-74
2023/10/15 14:40:37;;;;;;;5.80;1.48;;;;;;;;;;7409182;19;20002;-72
2023/10/15 14:43:03;;;;;;;2.15;1.27;;;;;;;;;;7367126;19;20022;-73
2023/10/15 14:45:29;;;;;;;3.55;1.52;;;;;;;;;;7398051;19;20002;-72
2023/10/15 14:47:54;;;;;;;2.40;1.20;;;;;;;;;;7388087;19;20034;-73
2023/10/15 14:50:20;;;;;;;3.03;1.35;;;;;;;;;;7364490;19;20011;-73
2023/10/15 14:52:45;;;;;;;3.58;1.35;;;;;;;;;;7385678;19;20002;-72
2023/10/15 14:55:12;;;;;;;6.43;1.73;;;;;;;;;;7366261;19;20016;-71
2023/10/15 14:57:38;;;;;;;1.90;1.10;;;;;;;;;;7365701;19;20013;-73
2023/10/15 15:00:04;;;;;;;2.85;1.30;;;;;;;;;;7367245;19;20014;-73
2023/10/15 15:02:30;;;;;;;2.92;1.40;;;;;;;;;;7364341;19;20015;-71
2023/10/15 15:04:55;;;;;;;4.63;1.70;;;;;;;;;;7367172;19;20014;-71